Time,TemperatureF,DewpointF,PressureIn,WindDirection,WindDirectionDegrees,WindSpeedMPH,WindSpeedGustMPH,Humidity,HourlyPrecipIn,Conditions,Clouds,dailyrainin,SoftwareType,DateUTC
2015-01-29 00:14:00,29.2,16.0,30.12,SE,130,0.0,7.0,57,0.00,,,0.00,weatherlink.com 1.10,2015-01-29 05:14:00,
2015-01-29 00:29:00,29.3,14.0,30.11,SSE,156,0.0,8.0,54,0.00,,,0.00,weatherlink.com 1.10,2015-01-29 05:29:00,
2015-01-29 00:45:00,29.2,15.0,30.10,WNW,295,1.0,6.0,55,0.00,,,0.00,weatherlink.com 1.10,2015-01-29 05:45:00,
2015-01-29 01:00:00,29.3,15.0,30.09,SE,127,1.0,5.0,55,0.00,,,0.00,weatherlink.com 1.10,2015-01-29 06:00:00,
2015-01-29 01:15:00,29.3,15.0,30.09,ENE,61,1.0,7.0,55,0.00,,,0.00,weatherlink.com 1.10,2015-01-29 06:15:00,
2015-01-29 01:30:00,29.2,14.0,30.08,South,180,2.0,6.0,53,0.00,,,0.00,weatherlink.com 1.10,2015-01-29 06:30:00,
2015-01-29 01:45:00,29.0,15.0,30.07,SE,138,0.0,8.0,55,0.00,,,0.00,weatherlink.com 1.10,2015-01-29 06:45:00,
2015-01-29 02:00:00,28.9,15.0,30.06,SSE,168,1.0,7.0,56,0.00,,,0.00,weatherlink.com 1.10,2015-01-29 07:00:00,
2015-01-29 02:15:00,28.8,14.0,30.05,SSE,166,0.0,8.0,55,0.00,,,0.00,weatherlink.com 1.10,2015-01-29 07:15:00,
2015-01-29 02:30:00,28.8,16.0,30.05,ESE,122,0.0,6.0,58,0.00,,,0.00,weatherlink.com 1.10,2015-01-29 07:30:00,
2015-01-29 02:45:00,28.8,15.0,30.04,South,181,4.0,7.0,57,0.00,,,0.00,weatherlink.com 1.10,2015-01-29 07:45:00,
2015-01-29 03:00:00,28.6,15.0,30.04,SSW,198,0.0,6.0,58,0.00,,,0.00,weatherlink.com 1.10,2015-01-29 08:00:00,
2015-01-29 03:15:00,28.6,16.0,30.03,SSE,150,0.0,6.0,59,0.00,,,0.00,weatherlink.com 1.10,2015-01-29 08:15:00,
2015-01-29 03:30:00,28.4,16.0,30.02,SSE,168,0.0,2.0,61,0.00,,,0.00,weatherlink.com 1.10,2015-01-29 08:30:00,
2015-01-29 03:45:00,28.6,16.0,30.02,NW,313,1.0,4.0,60,0.00,,,0.00,weatherlink.com 1.10,2015-01-29 08:45:00,
2015-01-29 04:00:00,-999.0,-99.9,30.01,North,-999,-999.0,-999.0,-999,0.00,,,0.00,weatherlink.com 1.10,2015-01-29 09:00:00,
2015-01-29 04:15:00,-999.0,-99.9,30.01,North,-999,-999.0,-999.0,-999,0.00,,,0.00,weatherlink.com 1.10,2015-01-29 09:15:00,
2015-01-29 04:30:00,-999.0,-99.9,30.00,North,-999,-999.0,-999.0,-999,0.00,,,0.00,weatherlink.com 1.10,2015-01-29 09:30:00,
2015-01-29 04:45:00,-999.0,-99.9,30.00,North,-999,-999.0,-999.0,-999,0.00,,,0.00,weatherlink.com 1.10,2015-01-29 09:45:00,
2015-01-29 05:00:00,-999.0,-99.9,29.99,North,-999,-999.0,-999.0,-999,0.00,,,0.00,weatherlink.com 1.10,2015-01-29 10:00:00,
2015-01-29 05:15:00,-999.0,-99.9,29.98,North,-999,-999.0,-999.0,-999,0.00,,,0.00,weatherlink.com 1.10,2015-01-29 10:15:00,
2015-01-29 05:30:00,-999.0,-99.9,29.98,North,-999,-999.0,-999.0,-999,0.00,,,0.00,weatherlink.com 1.10,2015-01-29 10:30:00,
2015-01-29 05:46:00,-999.0,-99.9,29.98,North,-999,-999.0,-999.0,-999,0.00,,,0.00,weatherlink.com 1.10,2015-01-29 10:46:00,
2015-01-29 06:01:00,-999.0,-99.9,29.96,North,-999,-999.0,-999.0,-999,0.00,,,0.00,weatherlink.com 1.10,2015-01-29 11:01:00,
2015-01-29 06:16:00,-999.0,-99.9,29.95,North,-999,-999.0,-999.0,-999,0.00,,,0.00,weatherlink.com 1.10,2015-01-29 11:16:00,
2015-01-29 06:31:00,-999.0,-99.9,29.95,North,-999,-999.0,-999.0,-999,0.00,,,0.00,weatherlink.com 1.10,2015-01-29 11:31:00,
2015-01-29 06:46:00,-999.0,-99.9,29.95,North,-999,-999.0,-999.0,-999,0.00,,,0.00,weatherlink.com 1.10,2015-01-29 11:46:00,
2015-01-29 07:01:00,-999.0,-99.9,29.94,North,-999,-999.0,-999.0,-999,0.00,,,0.00,weatherlink.com 1.10,2015-01-29 12:01:00,
2015-01-29 07:16:00,-999.0,-99.9,29.94,North,-999,-999.0,-999.0,-999,0.00,,,0.00,weatherlink.com 1.10,2015-01-29 12:16:00,
2015-01-29 07:31:00,-999.0,-99.9,29.94,North,-999,-999.0,-999.0,-999,0.00,,,0.00,weatherlink.com 1.10,2015-01-29 12:31:00,
2015-01-29 07:46:00,-999.0,-99.9,29.95,North,-999,-999.0,-999.0,-999,0.00,,,0.00,weatherlink.com 1.10,2015-01-29 12:46:00,
2015-01-29 08:01:00,-999.0,-99.9,29.95,North,-999,-999.0,-999.0,-999,0.00,,,0.00,weatherlink.com 1.10,2015-01-29 13:01:00,
2015-01-29 08:16:00,-999.0,-99.9,29.95,North,-999,-999.0,-999.0,-999,0.00,,,0.00,weatherlink.com 1.10,2015-01-29 13:16:00,
2015-01-29 08:31:00,-999.0,-99.9,29.95,North,-999,-999.0,-999.0,-999,0.00,,,0.00,weatherlink.com 1.10,2015-01-29 13:31:00,
2015-01-29 08:46:00,-999.0,-99.9,29.96,North,-999,-999.0,-999.0,-999,0.00,,,0.00,weatherlink.com 1.10,2015-01-29 13:46:00,
2015-01-29 09:02:00,-999.0,-99.9,29.96,North,-999,-999.0,-999.0,-999,0.00,,,0.00,weatherlink.com 1.10,2015-01-29 14:02:00,
2015-01-29 09:17:00,-999.0,-99.9,29.96,North,-999,-999.0,-999.0,-999,0.00,,,0.00,weatherlink.com 1.10,2015-01-29 14:17:00,
2015-01-29 09:32:00,25.9,24.0,29.96,South,176,0.0,0.0,91,0.00,,,0.00,weatherlink.com 1.10,2015-01-29 14:32:00,
2015-01-29 09:47:00,26.2,24.0,29.97,South,176,0.0,0.0,92,0.00,,,0.00,weatherlink.com 1.10,2015-01-29 14:47:00,
2015-01-29 10:02:00,27.3,25.0,29.97,South,176,0.0,0.0,91,0.00,,,0.00,weatherlink.com 1.10,2015-01-29 15:02:00,
2015-01-29 10:17:00,27.4,25.0,29.97,WSW,252,0.0,1.0,90,0.00,,,0.00,weatherlink.com 1.10,2015-01-29 15:17:00,
2015-01-29 10:32:00,28.1,25.0,29.97,SSW,207,0.0,1.0,89,0.00,,,0.00,weatherlink.com 1.10,2015-01-29 15:32:00,
2015-01-29 10:47:00,28.6,26.0,29.97,NW,304,0.0,1.0,88,0.00,,,0.00,weatherlink.com 1.10,2015-01-29 15:47:00,
2015-01-29 11:02:00,28.7,26.0,29.97,WNW,283,0.0,1.0,88,0.00,,,0.00,weatherlink.com 1.10,2015-01-29 16:02:00,
2015-01-29 11:17:00,28.6,26.0,29.98,SW,221,0.0,1.0,90,0.00,,,0.00,weatherlink.com 1.10,2015-01-29 16:17:00,
2015-01-29 11:32:00,30.0,27.0,29.98,WNW,293,0.0,1.0,89,0.00,,,0.00,weatherlink.com 1.10,2015-01-29 16:32:00,
2015-01-29 11:47:00,30.4,28.0,29.98,NNE,33,0.0,5.0,90,0.00,,,0.00,weatherlink.com 1.10,2015-01-29 16:47:00,
2015-01-29 12:02:00,31.4,29.0,29.98,NNW,329,3.0,7.0,89,0.00,,,0.00,weatherlink.com 1.10,2015-01-29 17:02:00,
2015-01-29 12:17:00,31.6,29.0,29.99,NE,53,3.0,6.0,90,0.00,,,0.00,weatherlink.com 1.10,2015-01-29 17:17:00,
2015-01-29 12:32:00,31.4,29.0,29.99,NNW,328,2.0,4.0,92,0.00,,,0.00,weatherlink.com 1.10,2015-01-29 17:32:00,
2015-01-29 12:47:00,31.5,30.0,29.99,North,8,3.0,8.0,93,0.00,,,0.00,weatherlink.com 1.10,2015-01-29 17:47:00,
2015-01-29 13:02:00,31.9,30.0,29.99,NNW,338,2.0,6.0,91,0.00,,,0.00,weatherlink.com 1.10,2015-01-29 18:02:00,
2015-01-29 13:17:00,32.1,30.0,29.99,NNW,346,9.0,9.0,90,0.00,,,0.00,weatherlink.com 1.10,2015-01-29 18:17:00,
2015-01-29 13:32:00,31.9,29.0,29.99,NNW,347,7.0,13.0,90,0.00,,,0.00,weatherlink.com 1.10,2015-01-29 18:32:00,
2015-01-29 13:47:00,32.1,29.0,29.99,NNW,340,7.0,10.0,89,0.00,,,0.00,weatherlink.com 1.10,2015-01-29 18:47:00,
2015-01-29 14:02:00,32.0,28.0,30.00,NW,308,5.0,13.0,85,0.00,,,0.00,weatherlink.com 1.10,2015-01-29 19:02:00,
2015-01-29 14:17:00,31.7,27.0,30.00,North,359,7.0,16.0,83,0.00,,,0.00,weatherlink.com 1.10,2015-01-29 19:17:00,
2015-01-29 14:32:00,31.7,26.0,30.01,NNW,346,7.0,15.0,79,0.00,,,0.00,weatherlink.com 1.10,2015-01-29 19:32:00,
2015-01-29 14:47:00,31.6,26.0,30.02,NNW,332,13.0,15.0,79,0.00,,,0.00,weatherlink.com 1.10,2015-01-29 19:47:00,
2015-01-29 15:02:00,31.0,25.0,30.02,NNW,342,4.0,19.0,79,0.00,,,0.00,weatherlink.com 1.10,2015-01-29 20:02:00,
2015-01-29 15:17:00,31.0,25.0,30.04,NNW,339,8.0,13.0,78,0.00,,,0.00,weatherlink.com 1.10,2015-01-29 20:17:00,
2015-01-29 15:32:00,30.5,26.0,30.05,North,349,5.0,16.0,82,0.00,,,0.00,weatherlink.com 1.10,2015-01-29 20:32:00,
2015-01-29 15:47:00,30.2,25.0,30.07,NNW,330,5.0,16.0,82,0.00,,,0.00,weatherlink.com 1.10,2015-01-29 20:47:00,
2015-01-29 16:02:00,29.7,25.0,30.08,North,352,7.0,20.0,82,0.00,,,0.00,weatherlink.com 1.10,2015-01-29 21:02:00,
2015-01-29 16:17:00,29.0,25.0,30.09,North,349,9.0,20.0,84,0.00,,,0.00,weatherlink.com 1.10,2015-01-29 21:17:00,
2015-01-29 16:32:00,28.6,24.0,30.11,North,4,7.0,19.0,83,0.00,,,0.00,weatherlink.com 1.10,2015-01-29 21:32:00,
2015-01-29 16:47:00,27.9,23.0,30.13,North,3,11.0,14.0,83,0.00,,,0.00,weatherlink.com 1.10,2015-01-29 21:47:00,
2015-01-29 17:02:00,27.2,23.0,30.14,NNE,14,6.0,17.0,83,0.00,,,0.00,weatherlink.com 1.10,2015-01-29 22:02:00,
2015-01-29 17:17:00,26.5,22.0,30.16,NW,307,10.0,21.0,84,0.00,,,0.00,weatherlink.com 1.10,2015-01-29 22:17:00,
2015-01-29 17:32:00,26.2,21.0,30.17,NNE,15,10.0,16.0,82,0.00,,,0.00,weatherlink.com 1.10,2015-01-29 22:32:00,
2015-01-29 17:47:00,25.8,22.0,30.19,North,8,8.0,18.0,84,0.00,,,0.00,weatherlink.com 1.10,2015-01-29 22:47:00,
2015-01-29 18:03:00,25.2,21.0,30.20,NNE,18,9.0,20.0,84,0.00,,,0.00,weatherlink.com 1.10,2015-01-29 23:03:00,
2015-01-29 18:18:00,24.5,20.0,30.22,NW,321,17.0,19.0,84,0.00,,,0.00,weatherlink.com 1.10,2015-01-29 23:18:00,
2015-01-29 18:33:00,24.2,20.0,30.23,NNW,328,17.0,22.0,84,0.00,,,0.00,weatherlink.com 1.10,2015-01-29 23:33:00,